sensor_id;sensor_type;location;lat;lon;timestamp;P1;durP1;ratioP1;P2;durP2;ratioP2
77563;SDS011;66703;48.076;9.220;2023-02-12T00:00:34;31.58;;;28.70;;
77563;SDS011;66703;48.076;9.220;2023-02-12T00:03:00;24.63;;;22.40;;
77563;SDS011;66703;48.076;9.220;2023-02-12T00:05:25;40.83;;;38.15;;
77563;SDS011;66703;48.076;9.220;2023-02-12T00:07:52;30.48;;;27.85;;
77563;SDS011;66703;48.076;9.220;2023-02-12T00:10:17;27.80;;;25.10;;
77563;SDS011;66703;48.076;9.220;2023-02-12T00:12:43;28.35;;;26.13;;
77563;SDS011;66703;48.076;9.220;2023-02-12T00:15:08;35.88;;;33.22;;
77563;SDS011;66703;48.076;9.220;2023-02-12T00:17:37;28.88;;;26.00;;
77563;SDS011;66703;48.076;9.220;2023-02-12T00:20:05;28.80;;;26.30;;
77563;SDS011;66703;48.076;9.220;2023-02-12T00:22:31;30.17;;;27.27;;
77563;SDS011;66703;48.076;9.220;2023-02-12T00:24:56;30.50;;;28.05;;
77563;SDS011;66703;48.076;9.220;2023-02-12T00:27:22;33.58;;;30.42;;
77563;SDS011;66703;48.076;9.220;2023-02-12T00:29:54;33.50;;;30.75;;
77563;SDS011;66703;48.076;9.220;2023-02-12T00:32:19;30.60;;;27.90;;
77563;SDS011;66703;48.076;9.220;2023-02-12T00:34:47;31.90;;;28.95;;
77563;SDS011;66703;48.076;9.220;2023-02-12T00:37:13;32.33;;;28.88;;
77563;SDS011;66703;48.076;9.220;2023-02-12T00:39:39;39.08;;;35.92;;
77563;SDS011;66703;48.076;9.220;2023-02-12T00:42:04;27.08;;;23.83;;
77563;SDS011;66703;48.076;9.220;2023-02-12T00:44:29;28.83;;;26.20;;
77563;SDS011;66703;48.076;9.220;2023-02-12T00:46:55;32.97;;;30.05;;
77563;SDS011;66703;48.076;9.220;2023-02-12T00:49:24;34.22;;;31.63;;
77563;SDS011;66703;48.076;9.220;2023-02-12T00:51:49;38.03;;;34.85;;
77563;SDS011;66703;48.076;9.220;2023-02-12T00:54:15;28.52;;;25.83;;
77563;SDS011;66703;48.076;9.220;2023-02-12T00:56:40;31.65;;;28.92;;
77563;SDS011;66703;48.076;9.220;2023-02-12T00:59:06;28.80;;;26.27;;
77563;SDS011;66703;48.076;9.220;2023-02-12T01:01:32;34.45;;;31.88;;
77563;SDS011;66703;48.076;9.220;2023-02-12T01:03:57;29.55;;;27.05;;
77563;SDS011;66703;48.076;9.220;2023-02-12T01:06:22;30.67;;;28.15;;
77563;SDS011;66703;48.076;9.220;2023-02-12T01:08:51;30.58;;;27.80;;
77563;SDS011;66703;48.076;9.220;2023-02-12T01:11:17;53.70;;;50.42;;
77563;SDS011;66703;48.076;9.220;2023-02-12T01:13:43;41.30;;;38.38;;
77563;SDS011;66703;48.076;9.220;2023-02-12T01:16:12;29.27;;;26.80;;
77563;SDS011;66703;48.076;9.220;2023-02-12T01:18:39;29.52;;;26.67;;
77563;SDS011;66703;48.076;9.220;2023-02-12T01:21:11;30.73;;;27.92;;
77563;SDS011;66703;48.076;9.220;2023-02-12T01:23:41;30.30;;;27.50;;
77563;SDS011;66703;48.076;9.220;2023-02-12T01:26:07;31.50;;;29.15;;
77563;SDS011;66703;48.076;9.220;2023-02-12T01:28:35;35.33;;;32.20;;
77563;SDS011;66703;48.076;9.220;2023-02-12T01:31:06;40.95;;;37.90;;
77563;SDS011;66703;48.076;9.220;2023-02-12T01:33:41;29.98;;;27.25;;
77563;SDS011;66703;48.076;9.220;2023-02-12T01:36:08;35.30;;;32.33;;
77563;SDS011;66703;48.076;9.220;2023-02-12T01:38:34;33.88;;;30.98;;
77563;SDS011;66703;48.076;9.220;2023-02-12T01:41:03;37.80;;;34.53;;
77563;SDS011;66703;48.076;9.220;2023-02-12T01:43:30;41.67;;;38.83;;
77563;SDS011;66703;48.076;9.220;2023-02-12T01:45:57;35.70;;;32.28;;
77563;SDS011;66703;48.076;9.220;2023-02-12T01:48:24;31.80;;;28.67;;
77563;SDS011;66703;48.076;9.220;2023-02-12T01:50:50;36.88;;;34.00;;
77563;SDS011;66703;48.076;9.220;2023-02-12T01:53:17;29.48;;;26.70;;
77563;SDS011;66703;48.076;9.220;2023-02-12T01:55:45;30.25;;;27.77;;
77563;SDS011;66703;48.076;9.220;2023-02-12T01:58:12;27.27;;;24.35;;
77563;SDS011;66703;48.076;9.220;2023-02-12T02:00:38;33.00;;;30.00;;
77563;SDS011;66703;48.076;9.220;2023-02-12T02:03:03;29.52;;;26.50;;
77563;SDS011;66703;48.076;9.220;2023-02-12T02:05:35;27.23;;;24.48;;
77563;SDS011;66703;48.076;9.220;2023-02-12T02:08:17;25.52;;;22.85;;
77563;SDS011;66703;48.076;9.220;2023-02-12T02:10:42;37.08;;;33.72;;
77563;SDS011;66703;48.076;9.220;2023-02-12T02:13:08;35.90;;;32.47;;
77563;SDS011;66703;48.076;9.220;2023-02-12T02:15:56;30.33;;;27.33;;
77563;SDS011;66703;48.076;9.220;2023-02-12T02:18:44;28.55;;;25.73;;
77563;SDS011;66703;48.076;9.220;2023-02-12T02:25:22;31.00;;;28.30;;
77563;SDS011;66703;48.076;9.220;2023-02-12T02:33:05;28.60;;;23.92;;
77563;SDS011;66703;48.076;9.220;2023-02-12T02:35:38;29.38;;;26.35;;
77563;SDS011;66703;48.076;9.220;2023-02-12T02:38:10;32.63;;;29.65;;
77563;SDS011;66703;48.076;9.220;2023-02-12T02:41:07;31.33;;;28.55;;
77563;SDS011;66703;48.076;9.220;2023-02-12T02:43:41;30.98;;;28.20;;
77563;SDS011;66703;48.076;9.220;2023-02-12T02:46:14;28.15;;;25.35;;
77563;SDS011;66703;48.076;9.220;2023-02-12T02:51:33;28.20;;;25.27;;
77563;SDS011;66703;48.076;9.220;2023-02-12T02:57:04;28.50;;;25.83;;
77563;SDS011;66703;48.076;9.220;2023-02-12T02:59:34;32.97;;;30.10;;
77563;SDS011;66703;48.076;9.220;2023-02-12T03:04:45;27.83;;;25.08;;
77563;SDS011;66703;48.076;9.220;2023-02-12T03:09:47;30.80;;;27.98;;
77563;SDS011;66703;48.076;9.220;2023-02-12T03:12:19;30.05;;;27.10;;
77563;SDS011;66703;48.076;9.220;2023-02-12T03:14:52;25.83;;;22.88;;
77563;SDS011;66703;48.076;9.220;2023-02-12T03:17:30;27.77;;;24.95;;
77563;SDS011;66703;48.076;9.220;2023-02-12T03:19:59;24.42;;;20.77;;
77563;SDS011;66703;48.076;9.220;2023-02-12T03:22:30;24.40;;;20.40;;
77563;SDS011;66703;48.076;9.220;2023-02-12T03:25:02;24.65;;;22.42;;
77563;SDS011;66703;48.076;9.220;2023-02-12T03:27:36;28.67;;;26.15;;
77563;SDS011;66703;48.076;9.220;2023-02-12T03:30:03;38.22;;;35.30;;
77563;SDS011;66703;48.076;9.220;2023-02-12T03:32:32;27.00;;;24.38;;
77563;SDS011;66703;48.076;9.220;2023-02-12T03:37:35;24.85;;;22.40;;
77563;SDS011;66703;48.076;9.220;2023-02-12T03:40:19;28.08;;;25.30;;
77563;SDS011;66703;48.076;9.220;2023-02-12T03:45:37;28.08;;;25.30;;
77563;SDS011;66703;48.076;9.220;2023-02-12T03:50:59;26.25;;;23.80;;
77563;SDS011;66703;48.076;9.220;2023-02-12T03:53:28;22.85;;;20.75;;
77563;SDS011;66703;48.076;9.220;2023-02-12T03:55:59;31.52;;;28.58;;
77563;SDS011;66703;48.076;9.220;2023-02-12T03:58:28;34.53;;;31.95;;
77563;SDS011;66703;48.076;9.220;2023-02-12T04:00:54;23.50;;;21.25;;
77563;SDS011;66703;48.076;9.220;2023-02-12T04:03:21;31.15;;;28.67;;
77563;SDS011;66703;48.076;9.220;2023-02-12T04:05:46;29.38;;;26.88;;
77563;SDS011;66703;48.076;9.220;2023-02-12T04:08:11;32.08;;;29.45;;
77563;SDS011;66703;48.076;9.220;2023-02-12T04:10:41;27.80;;;25.40;;
77563;SDS011;66703;48.076;9.220;2023-02-12T04:18:18;36.35;;;33.88;;
77563;SDS011;66703;48.076;9.220;2023-02-12T04:34:20;24.75;;;22.52;;
77563;SDS011;66703;48.076;9.220;2023-02-12T04:37:00;29.35;;;27.02;;
77563;SDS011;66703;48.076;9.220;2023-02-12T04:39:29;24.98;;;22.40;;
77563;SDS011;66703;48.076;9.220;2023-02-12T04:42:02;27.30;;;24.85;;
77563;SDS011;66703;48.076;9.220;2023-02-12T04:44:29;21.60;;;19.50;;
77563;SDS011;66703;48.076;9.220;2023-02-12T04:46:57;35.22;;;32.83;;
77563;SDS011;66703;48.076;9.220;2023-02-12T04:49:23;24.75;;;22.48;;
77563;SDS011;66703;48.076;9.220;2023-02-12T04:51:49;23.20;;;21.23;;
77563;SDS011;66703;48.076;9.220;2023-02-12T04:54:15;27.40;;;25.25;;
77563;SDS011;66703;48.076;9.220;2023-02-12T04:56:42;23.50;;;21.10;;
77563;SDS011;66703;48.076;9.220;2023-02-12T04:59:08;28.33;;;26.05;;
77563;SDS011;66703;48.076;9.220;2023-02-12T05:01:33;23.55;;;21.42;;
77563;SDS011;66703;48.076;9.220;2023-02-12T05:04:00;26.50;;;24.27;;
77563;SDS011;66703;48.076;9.220;2023-02-12T05:06:26;25.80;;;23.40;;
77563;SDS011;66703;48.076;9.220;2023-02-12T05:08:54;24.98;;;22.67;;
77563;SDS011;66703;48.076;9.220;2023-02-12T05:11:20;24.88;;;22.73;;
77563;SDS011;66703;48.076;9.220;2023-02-12T05:13:49;26.05;;;23.60;;
77563;SDS011;66703;48.076;9.220;2023-02-12T05:16:16;34.85;;;31.67;;
77563;SDS011;66703;48.076;9.220;2023-02-12T05:18:41;31.42;;;28.42;;
77563;SDS011;66703;48.076;9.220;2023-02-12T05:21:10;27.10;;;23.27;;
77563;SDS011;66703;48.076;9.220;2023-02-12T05:23:36;25.42;;;22.85;;
77563;SDS011;66703;48.076;9.220;2023-02-12T05:26:04;46.78;;;43.58;;
77563;SDS011;66703;48.076;9.220;2023-02-12T05:28:31;25.85;;;23.63;;
77563;SDS011;66703;48.076;9.220;2023-02-12T05:31:03;25.30;;;23.10;;
77563;SDS011;66703;48.076;9.220;2023-02-12T05:33:30;31.40;;;28.88;;
77563;SDS011;66703;48.076;9.220;2023-02-12T05:36:01;24.52;;;22.25;;
77563;SDS011;66703;48.076;9.220;2023-02-12T05:38:34;30.60;;;28.40;;
77563;SDS011;66703;48.076;9.220;2023-02-12T05:41:01;31.23;;;28.77;;
77563;SDS011;66703;48.076;9.220;2023-02-12T05:45:59;32.58;;;30.17;;
77563;SDS011;66703;48.076;9.220;2023-02-12T05:48:25;30.67;;;28.08;;
77563;SDS011;66703;48.076;9.220;2023-02-12T05:50:51;22.88;;;20.92;;
77563;SDS011;66703;48.076;9.220;2023-02-12T05:53:16;21.70;;;19.45;;
77563;SDS011;66703;48.076;9.220;2023-02-12T05:55:42;24.25;;;21.60;;
77563;SDS011;66703;48.076;9.220;2023-02-12T05:58:07;26.92;;;24.42;;
77563;SDS011;66703;48.076;9.220;2023-02-12T06:00:32;27.33;;;24.45;;
77563;SDS011;66703;48.076;9.220;2023-02-12T06:02:58;27.08;;;24.40;;
77563;SDS011;66703;48.076;9.220;2023-02-12T06:05:23;29.23;;;26.10;;
77563;SDS011;66703;48.076;9.220;2023-02-12T06:07:49;26.05;;;23.60;;
77563;SDS011;66703;48.076;9.220;2023-02-12T06:10:14;28.27;;;25.38;;
77563;SDS011;66703;48.076;9.220;2023-02-12T06:12:40;26.40;;;21.20;;
77563;SDS011;66703;48.076;9.220;2023-02-12T06:15:05;27.15;;;24.55;;
77563;SDS011;66703;48.076;9.220;2023-02-12T06:17:32;33.83;;;30.50;;
77563;SDS011;66703;48.076;9.220;2023-02-12T06:19:58;30.38;;;27.23;;
77563;SDS011;66703;48.076;9.220;2023-02-12T06:22:24;27.35;;;24.60;;
77563;SDS011;66703;48.076;9.220;2023-02-12T06:24:49;28.58;;;25.75;;
77563;SDS011;66703;48.076;9.220;2023-02-12T06:27:14;31.02;;;27.80;;
77563;SDS011;66703;48.076;9.220;2023-02-12T06:29:40;40.97;;;27.60;;
77563;SDS011;66703;48.076;9.220;2023-02-12T06:32:05;33.35;;;27.67;;
77563;SDS011;66703;48.076;9.220;2023-02-12T06:34:32;38.42;;;26.95;;
77563;SDS011;66703;48.076;9.220;2023-02-12T06:36:57;40.63;;;32.45;;
77563;SDS011;66703;48.076;9.220;2023-02-12T06:39:26;39.90;;;32.22;;
77563;SDS011;66703;48.076;9.220;2023-02-12T06:41:51;39.58;;;34.67;;
77563;SDS011;66703;48.076;9.220;2023-02-12T06:44:16;44.30;;;33.78;;
77563;SDS011;66703;48.076;9.220;2023-02-12T06:46:42;33.78;;;28.67;;
77563;SDS011;66703;48.076;9.220;2023-02-12T06:49:09;39.75;;;30.13;;
77563;SDS011;66703;48.076;9.220;2023-02-12T06:51:36;40.78;;;33.25;;
77563;SDS011;66703;48.076;9.220;2023-02-12T06:54:02;41.63;;;30.75;;
77563;SDS011;66703;48.076;9.220;2023-02-12T06:56:27;41.17;;;31.23;;
77563;SDS011;66703;48.076;9.220;2023-02-12T06:58:54;39.00;;;28.73;;
77563;SDS011;66703;48.076;9.220;2023-02-12T07:01:22;47.45;;;28.50;;
77563;SDS011;66703;48.076;9.220;2023-02-12T07:03:50;44.53;;;35.40;;
77563;SDS011;66703;48.076;9.220;2023-02-12T07:06:24;47.78;;;34.08;;
77563;SDS011;66703;48.076;9.220;2023-02-12T07:08:50;46.72;;;37.88;;
77563;SDS011;66703;48.076;9.220;2023-02-12T07:11:16;47.92;;;39.85;;
77563;SDS011;66703;48.076;9.220;2023-02-12T07:13:41;51.28;;;29.05;;
77563;SDS011;66703;48.076;9.220;2023-02-12T07:16:12;47.40;;;35.00;;
77563;SDS011;66703;48.076;9.220;2023-02-12T07:18:38;46.70;;;29.42;;
77563;SDS011;66703;48.076;9.220;2023-02-12T07:21:05;52.53;;;29.80;;
77563;SDS011;66703;48.076;9.220;2023-02-12T07:23:31;49.17;;;28.73;;
77563;SDS011;66703;48.076;9.220;2023-02-12T07:25:58;45.22;;;33.80;;
77563;SDS011;66703;48.076;9.220;2023-02-12T07:28:24;51.30;;;31.45;;
77563;SDS011;66703;48.076;9.220;2023-02-12T07:30:50;47.15;;;31.02;;
77563;SDS011;66703;48.076;9.220;2023-02-12T07:33:16;48.55;;;30.80;;
77563;SDS011;66703;48.076;9.220;2023-02-12T07:35:41;49.03;;;28.48;;
77563;SDS011;66703;48.076;9.220;2023-02-12T07:38:07;41.97;;;25.25;;
77563;SDS011;66703;48.076;9.220;2023-02-12T07:40:32;41.42;;;26.73;;
77563;SDS011;66703;48.076;9.220;2023-02-12T07:42:58;45.17;;;29.63;;
77563;SDS011;66703;48.076;9.220;2023-02-12T07:45:23;42.33;;;32.38;;
77563;SDS011;66703;48.076;9.220;2023-02-12T07:47:49;52.50;;;29.75;;
77563;SDS011;66703;48.076;9.220;2023-02-12T07:50:14;42.33;;;27.30;;
77563;SDS011;66703;48.076;9.220;2023-02-12T07:52:40;45.45;;;34.92;;
77563;SDS011;66703;48.076;9.220;2023-02-12T07:55:05;44.47;;;27.05;;
77563;SDS011;66703;48.076;9.220;2023-02-12T07:57:31;46.05;;;26.98;;
77563;SDS011;66703;48.076;9.220;2023-02-12T07:59:56;47.22;;;28.35;;
77563;SDS011;66703;48.076;9.220;2023-02-12T08:02:22;47.90;;;28.92;;
77563;SDS011;66703;48.076;9.220;2023-02-12T08:04:53;43.85;;;28.13;;
77563;SDS011;66703;48.076;9.220;2023-02-12T08:07:22;46.45;;;29.88;;
77563;SDS011;66703;48.076;9.220;2023-02-12T08:09:47;48.38;;;32.85;;
77563;SDS011;66703;48.076;9.220;2023-02-12T08:12:13;49.17;;;31.08;;
77563;SDS011;66703;48.076;9.220;2023-02-12T08:14:38;42.30;;;29.38;;
77563;SDS011;66703;48.076;9.220;2023-02-12T08:17:03;47.10;;;31.25;;
77563;SDS011;66703;48.076;9.220;2023-02-12T08:19:29;42.72;;;27.75;;
77563;SDS011;66703;48.076;9.220;2023-02-12T08:21:55;40.95;;;24.20;;
77563;SDS011;66703;48.076;9.220;2023-02-12T08:24:20;45.50;;;33.67;;
77563;SDS011;66703;48.076;9.220;2023-02-12T08:26:47;42.45;;;26.73;;
77563;SDS011;66703;48.076;9.220;2023-02-12T08:29:13;34.05;;;21.30;;
77563;SDS011;66703;48.076;9.220;2023-02-12T08:31:41;40.15;;;27.10;;
77563;SDS011;66703;48.076;9.220;2023-02-12T08:34:14;37.42;;;22.27;;
77563;SDS011;66703;48.076;9.220;2023-02-12T08:36:42;38.72;;;30.20;;
77563;SDS011;66703;48.076;9.220;2023-02-12T08:39:08;39.47;;;27.00;;
77563;SDS011;66703;48.076;9.220;2023-02-12T08:41:37;33.92;;;25.50;;
77563;SDS011;66703;48.076;9.220;2023-02-12T08:44:03;40.38;;;25.95;;
77563;SDS011;66703;48.076;9.220;2023-02-12T08:46:31;53.17;;;37.92;;
77563;SDS011;66703;48.076;9.220;2023-02-12T08:49:01;44.20;;;27.77;;
77563;SDS011;66703;48.076;9.220;2023-02-12T08:51:36;36.95;;;27.10;;
77563;SDS011;66703;48.076;9.220;2023-02-12T08:54:09;35.20;;;23.98;;
77563;SDS011;66703;48.076;9.220;2023-02-12T08:56:36;37.63;;;24.17;;
77563;SDS011;66703;48.076;9.220;2023-02-12T08:59:05;32.80;;;25.08;;
77563;SDS011;66703;48.076;9.220;2023-02-12T09:01:33;36.17;;;32.53;;
77563;SDS011;66703;48.076;9.220;2023-02-12T09:04:02;34.90;;;30.75;;
77563;SDS011;66703;48.076;9.220;2023-02-12T09:06:28;37.47;;;24.30;;
77563;SDS011;66703;48.076;9.220;2023-02-12T09:08:56;36.55;;;24.88;;
77563;SDS011;66703;48.076;9.220;2023-02-12T09:11:23;35.05;;;31.75;;
77563;SDS011;66703;48.076;9.220;2023-02-12T09:13:57;34.55;;;29.30;;
77563;SDS011;66703;48.076;9.220;2023-02-12T09:16:24;26.70;;;23.80;;
77563;SDS011;66703;48.076;9.220;2023-02-12T09:18:50;25.02;;;21.13;;
77563;SDS011;66703;48.076;9.220;2023-02-12T09:21:15;26.20;;;19.40;;
77563;SDS011;66703;48.076;9.220;2023-02-12T09:23:41;25.70;;;20.92;;
77563;SDS011;66703;48.076;9.220;2023-02-12T09:26:08;33.58;;;30.52;;
77563;SDS011;66703;48.076;9.220;2023-02-12T09:28:35;22.92;;;19.10;;
77563;SDS011;66703;48.076;9.220;2023-02-12T09:31:05;23.77;;;21.30;;
77563;SDS011;66703;48.076;9.220;2023-02-12T09:33:31;27.70;;;23.75;;
77563;SDS011;66703;48.076;9.220;2023-02-12T09:36:03;24.98;;;22.15;;
77563;SDS011;66703;48.076;9.220;2023-02-12T09:38:30;22.85;;;19.58;;
77563;SDS011;66703;48.076;9.220;2023-02-12T09:43:55;26.42;;;23.92;;
77563;SDS011;66703;48.076;9.220;2023-02-12T09:46:32;28.58;;;25.98;;
77563;SDS011;66703;48.076;9.220;2023-02-12T09:49:03;22.70;;;18.65;;
77563;SDS011;66703;48.076;9.220;2023-02-12T09:51:37;25.73;;;23.33;;
77563;SDS011;66703;48.076;9.220;2023-02-12T09:54:17;26.77;;;19.42;;
77563;SDS011;66703;48.076;9.220;2023-02-12T09:56:48;24.15;;;21.77;;
77563;SDS011;66703;48.076;9.220;2023-02-12T09:59:20;32.10;;;28.48;;
77563;SDS011;66703;48.076;9.220;2023-02-12T10:01:53;31.05;;;25.77;;
77563;SDS011;66703;48.076;9.220;2023-02-12T10:04:19;24.67;;;22.27;;
77563;SDS011;66703;48.076;9.220;2023-02-12T10:06:47;26.20;;;19.77;;
77563;SDS011;66703;48.076;9.220;2023-02-12T10:09:20;26.85;;;21.65;;
77563;SDS011;66703;48.076;9.220;2023-02-12T10:12:07;31.55;;;28.38;;
77563;SDS011;66703;48.076;9.220;2023-02-12T10:14:48;21.17;;;18.50;;
77563;SDS011;66703;48.076;9.220;2023-02-12T10:23:05;22.63;;;19.38;;
77563;SDS011;66703;48.076;9.220;2023-02-12T10:25:58;20.20;;;18.48;;
77563;SDS011;66703;48.076;9.220;2023-02-12T10:28:44;25.25;;;23.33;;
77563;SDS011;66703;48.076;9.220;2023-02-12T10:31:15;31.25;;;28.95;;
77563;SDS011;66703;48.076;9.220;2023-02-12T10:33:48;29.80;;;27.77;;
77563;SDS011;66703;48.076;9.220;2023-02-12T10:38:51;22.67;;;20.88;;
77563;SDS011;66703;48.076;9.220;2023-02-12T10:41:19;18.15;;;16.50;;
77563;SDS011;66703;48.076;9.220;2023-02-12T10:43:50;21.58;;;19.45;;
77563;SDS011;66703;48.076;9.220;2023-02-12T10:46:15;26.52;;;24.55;;
77563;SDS011;66703;48.076;9.220;2023-02-12T10:48:43;21.23;;;19.02;;
77563;SDS011;66703;48.076;9.220;2023-02-12T10:57:04;19.42;;;15.90;;
77563;SDS011;66703;48.076;9.220;2023-02-12T10:59:34;18.50;;;16.83;;
77563;SDS011;66703;48.076;9.220;2023-02-12T11:01:59;19.20;;;17.27;;
77563;SDS011;66703;48.076;9.220;2023-02-12T11:04:26;19.95;;;17.05;;
77563;SDS011;66703;48.076;9.220;2023-02-12T11:07:00;22.38;;;20.10;;
77563;SDS011;66703;48.076;9.220;2023-02-12T11:09:38;22.95;;;20.83;;
77563;SDS011;66703;48.076;9.220;2023-02-12T11:12:43;17.05;;;14.07;;
77563;SDS011;66703;48.076;9.220;2023-02-12T11:15:16;20.83;;;18.95;;
77563;SDS011;66703;48.076;9.220;2023-02-12T11:17:43;18.42;;;16.58;;
77563;SDS011;66703;48.076;9.220;2023-02-12T11:22:52;23.50;;;21.67;;
77563;SDS011;66703;48.076;9.220;2023-02-12T11:25:26;15.27;;;13.93;;
77563;SDS011;66703;48.076;9.220;2023-02-12T11:28:13;17.52;;;15.98;;
77563;SDS011;66703;48.076;9.220;2023-02-12T11:33:35;14.98;;;13.82;;
77563;SDS011;66703;48.076;9.220;2023-02-12T11:36:21;15.27;;;13.90;;
77563;SDS011;66703;48.076;9.220;2023-02-12T11:38:56;14.20;;;12.88;;
77563;SDS011;66703;48.076;9.220;2023-02-12T11:41:56;15.68;;;14.23;;
77563;SDS011;66703;48.076;9.220;2023-02-12T11:44:19;16.45;;;15.20;;
77563;SDS011;66703;48.076;9.220;2023-02-12T11:46:54;16.58;;;15.05;;
77563;SDS011;66703;48.076;9.220;2023-02-12T11:49:32;16.33;;;14.68;;
77563;SDS011;66703;48.076;9.220;2023-02-12T11:51:59;16.50;;;15.07;;
77563;SDS011;66703;48.076;9.220;2023-02-12T11:54:26;16.27;;;14.88;;
77563;SDS011;66703;48.076;9.220;2023-02-12T11:56:53;17.90;;;16.45;;
77563;SDS011;66703;48.076;9.220;2023-02-12T11:59:35;13.27;;;11.98;;
77563;SDS011;66703;48.076;9.220;2023-02-12T12:04:55;13.20;;;12.07;;
77563;SDS011;66703;48.076;9.220;2023-02-12T12:07:30;15.50;;;14.10;;
77563;SDS011;66703;48.076;9.220;2023-02-12T12:13:02;16.38;;;14.77;;
77563;SDS011;66703;48.076;9.220;2023-02-12T12:15:31;14.27;;;12.80;;
77563;SDS011;66703;48.076;9.220;2023-02-12T12:21:24;17.10;;;15.43;;
77563;SDS011;66703;48.076;9.220;2023-02-12T12:26:24;18.58;;;15.40;;
77563;SDS011;66703;48.076;9.220;2023-02-12T12:31:36;21.38;;;19.33;;
77563;SDS011;66703;48.076;9.220;2023-02-12T12:34:13;24.92;;;20.83;;
77563;SDS011;66703;48.076;9.220;2023-02-12T12:39:45;22.60;;;20.50;;
77563;SDS011;66703;48.076;9.220;2023-02-12T12:51:00;20.52;;;18.55;;
77563;SDS011;66703;48.076;9.220;2023-02-12T12:56:44;19.50;;;17.85;;
77563;SDS011;66703;48.076;9.220;2023-02-12T13:07:06;15.18;;;13.57;;
77563;SDS011;66703;48.076;9.220;2023-02-12T13:15:01;14.60;;;13.07;;
77563;SDS011;66703;48.076;9.220;2023-02-12T13:23:02;14.20;;;12.80;;
77563;SDS011;66703;48.076;9.220;2023-02-12T13:25:33;14.00;;;12.60;;
77563;SDS011;66703;48.076;9.220;2023-02-12T13:28:08;13.10;;;12.00;;
77563;SDS011;66703;48.076;9.220;2023-02-12T13:30:41;12.40;;;11.27;;
77563;SDS011;66703;48.076;9.220;2023-02-12T13:33:09;10.30;;;9.30;;
77563;SDS011;66703;48.076;9.220;2023-02-12T13:35:39;13.88;;;10.73;;
77563;SDS011;66703;48.076;9.220;2023-02-12T13:38:06;10.75;;;9.65;;
77563;SDS011;66703;48.076;9.220;2023-02-12T13:40:33;11.57;;;9.75;;
77563;SDS011;66703;48.076;9.220;2023-02-12T13:46:16;11.73;;;10.45;;
77563;SDS011;66703;48.076;9.220;2023-02-12T13:56:47;12.50;;;11.35;;
77563;SDS011;66703;48.076;9.220;2023-02-12T14:01:56;10.27;;;9.10;;
77563;SDS011;66703;48.076;9.220;2023-02-12T14:04:27;15.23;;;13.85;;
77563;SDS011;66703;48.076;9.220;2023-02-12T14:09:40;9.38;;;8.23;;
77563;SDS011;66703;48.076;9.220;2023-02-12T14:14:45;13.77;;;12.60;;
77563;SDS011;66703;48.076;9.220;2023-02-12T14:24:53;13.43;;;12.25;;
77563;SDS011;66703;48.076;9.220;2023-02-12T14:27:29;11.23;;;10.15;;
77563;SDS011;66703;48.076;9.220;2023-02-12T14:30:00;9.88;;;8.93;;
77563;SDS011;66703;48.076;9.220;2023-02-12T14:37:50;9.15;;;8.25;;
77563;SDS011;66703;48.076;9.220;2023-02-12T14:43:22;10.90;;;8.57;;
77563;SDS011;66703;48.076;9.220;2023-02-12T14:45:48;13.52;;;12.40;;
77563;SDS011;66703;48.076;9.220;2023-02-12T14:51:15;10.63;;;9.57;;
77563;SDS011;66703;48.076;9.220;2023-02-12T14:53:44;9.73;;;8.82;;
77563;SDS011;66703;48.076;9.220;2023-02-12T14:56:10;9.07;;;8.20;;
77563;SDS011;66703;48.076;9.220;2023-02-12T14:58:36;9.63;;;8.75;;
77563;SDS011;66703;48.076;9.220;2023-02-12T15:01:02;10.32;;;9.43;;
77563;SDS011;66703;48.076;9.220;2023-02-12T15:03:33;11.18;;;10.15;;
77563;SDS011;66703;48.076;9.220;2023-02-12T15:06:15;9.88;;;8.68;;
77563;SDS011;66703;48.076;9.220;2023-02-12T15:08:48;10.68;;;9.57;;
77563;SDS011;66703;48.076;9.220;2023-02-12T15:11:25;8.27;;;7.32;;
77563;SDS011;66703;48.076;9.220;2023-02-12T15:14:05;10.10;;;9.10;;
77563;SDS011;66703;48.076;9.220;2023-02-12T15:21:44;10.07;;;9.07;;
77563;SDS011;66703;48.076;9.220;2023-02-12T15:24:11;9.75;;;8.75;;
77563;SDS011;66703;48.076;9.220;2023-02-12T15:26:42;10.98;;;9.80;;
77563;SDS011;66703;48.076;9.220;2023-02-12T15:29:30;12.45;;;11.30;;
77563;SDS011;66703;48.076;9.220;2023-02-12T15:32:01;12.32;;;11.10;;
77563;SDS011;66703;48.076;9.220;2023-02-12T15:34:30;12.95;;;11.57;;
77563;SDS011;66703;48.076;9.220;2023-02-12T15:36:58;12.05;;;10.82;;
77563;SDS011;66703;48.076;9.220;2023-02-12T15:39:25;12.82;;;11.05;;
77563;SDS011;66703;48.076;9.220;2023-02-12T15:41:52;13.68;;;12.23;;
77563;SDS011;66703;48.076;9.220;2023-02-12T15:44:25;12.75;;;11.13;;
77563;SDS011;66703;48.076;9.220;2023-02-12T15:46:58;17.92;;;16.42;;
77563;SDS011;66703;48.076;9.220;2023-02-12T15:49:32;13.23;;;11.90;;
77563;SDS011;66703;48.076;9.220;2023-02-12T15:52:01;15.85;;;14.40;;
77563;SDS011;66703;48.076;9.220;2023-02-12T15:57:18;14.05;;;12.40;;
77563;SDS011;66703;48.076;9.220;2023-02-12T15:59:49;15.00;;;13.50;;
77563;SDS011;66703;48.076;9.220;2023-02-12T16:02:17;17.60;;;14.43;;
77563;SDS011;66703;48.076;9.220;2023-02-12T16:04:56;16.85;;;15.23;;
77563;SDS011;66703;48.076;9.220;2023-02-12T16:07:22;17.45;;;15.05;;
77563;SDS011;66703;48.076;9.220;2023-02-12T16:09:49;18.25;;;16.52;;
77563;SDS011;66703;48.076;9.220;2023-02-12T16:12:16;21.83;;;19.77;;
77563;SDS011;66703;48.076;9.220;2023-02-12T16:14:50;19.08;;;17.20;;
77563;SDS011;66703;48.076;9.220;2023-02-12T16:20:03;18.35;;;16.45;;
77563;SDS011;66703;48.076;9.220;2023-02-12T16:22:35;24.05;;;21.88;;
77563;SDS011;66703;48.076;9.220;2023-02-12T16:25:02;18.58;;;15.38;;
77563;SDS011;66703;48.076;9.220;2023-02-12T16:27:30;19.70;;;17.58;;
77563;SDS011;66703;48.076;9.220;2023-02-12T16:29:58;18.73;;;16.75;;
77563;SDS011;66703;48.076;9.220;2023-02-12T16:34:59;18.80;;;15.75;;
77563;SDS011;66703;48.076;9.220;2023-02-12T16:50:34;20.90;;;17.85;;
77563;SDS011;66703;48.076;9.220;2023-02-12T16:53:07;21.77;;;19.60;;
77563;SDS011;66703;48.076;9.220;2023-02-12T16:55:48;26.75;;;24.40;;
77563;SDS011;66703;48.076;9.220;2023-02-12T16:58:14;17.15;;;15.27;;
77563;SDS011;66703;48.076;9.220;2023-02-12T17:00:39;20.77;;;18.52;;
77563;SDS011;66703;48.076;9.220;2023-02-12T17:03:16;19.90;;;17.95;;
77563;SDS011;66703;48.076;9.220;2023-02-12T17:05:42;19.33;;;15.40;;
77563;SDS011;66703;48.076;9.220;2023-02-12T17:08:12;18.13;;;14.30;;
77563;SDS011;66703;48.076;9.220;2023-02-12T17:10:38;17.45;;;15.45;;
77563;SDS011;66703;48.076;9.220;2023-02-12T17:13:07;20.13;;;18.02;;
77563;SDS011;66703;48.076;9.220;2023-02-12T17:15:34;20.98;;;18.42;;
77563;SDS011;66703;48.076;9.220;2023-02-12T17:18:05;30.02;;;27.75;;
77563;SDS011;66703;48.076;9.220;2023-02-12T17:20:31;22.50;;;20.40;;
77563;SDS011;66703;48.076;9.220;2023-02-12T17:23:01;23.75;;;19.20;;
77563;SDS011;66703;48.076;9.220;2023-02-12T17:25:32;23.80;;;19.95;;
77563;SDS011;66703;48.076;9.220;2023-02-12T17:27:59;20.92;;;18.50;;
77563;SDS011;66703;48.076;9.220;2023-02-12T17:30:25;22.25;;;20.05;;
77563;SDS011;66703;48.076;9.220;2023-02-12T17:32:53;20.17;;;18.20;;
77563;SDS011;66703;48.076;9.220;2023-02-12T17:35:18;21.65;;;19.38;;
77563;SDS011;66703;48.076;9.220;2023-02-12T17:37:43;24.45;;;21.23;;
77563;SDS011;66703;48.076;9.220;2023-02-12T17:40:09;27.85;;;23.73;;